Hakuryu Maru — JL5950 — position and weather

sailwx.info

Track history (hours):
 
Tides and Currents Weather Stations Pressure Air Temp Water Temp Dewpoint Dewpoint Depression Visibility Wind Speed Wind Dir Waves Ship Positions

Hakuryu Maru

Last reported at 2018-Jul-20 09:00 UTC. Time now 2018-Jul-21 07:59 UTC.
Position N 33°48' E 135°05'.

Length 115 m; draft 5.1 m.

Type: Cargo ship. MMSI: 431500789.

Date/timePositionNaut miles runAvg speedWind from/ knotsBaromVisibWave heightAir tempDewpointWater temp
2018-Jul-20 09:00N 33°48' E 135°05'713.1
2018-Jul-20 08:28N 33°53' E 134°59'613.3
2018-Jul-20 08:00N 33°57' E 134°54'713.7
2018-Jul-20 07:30N 34°03' E 134°49'1113.4
2018-Jul-20 06:42N 34°11' E 134°41'313.0
2018-Jul-20 06:27N 34°14' E 134°39'713.2
2018-Jul-20 05:58N 34°17' E 134°32'613.2
2018-Jul-20 05:30N 34°19' E 134°26'12 0.2
2018-Jul-18 04:56N 34°25' E 134°13'615.4
2018-Jul-18 04:30N 34°24' E 134°20'815.5
2018-Jul-18 04:01N 34°21' E 134°29'1115.2
2018-Jul-18 03:17N 34°14' E 134°39'415.4
2018-Jul-18 03:00N 34°11' E 134°42'715.0
2018-Jul-18 02:30N 34°05' E 134°48'815.4
2018-Jul-18 02:00N 33°59' E 134°54'815.3
2018-Jul-18 01:31N 33°53' E 135°01'915.4
2018-Jul-18 00:54N 33°46' E 135°07'1 0.0
2018-Jul-16 17:02N 33°46' E 135°09'014.0
2018-Jul-16 17:00N 33°46' E 135°09'714.2
2018-Jul-16 16:30N 33°51' E 135°03'713.9
2018-Jul-16 16:00N 33°56' E 134°57'713.8
2018-Jul-16 15:30N 34°02' E 134°52'1413.7
2018-Jul-16 14:27N 34°13' E 134°41'7 1.6
2018-Jul-16 10:07N 34°16' E 134°34'1 4.9
2018-Jul-16 09:55N 34°17' E 134°33'512.5
2018-Jul-16 09:31N 34°19' E 134°27'713.8
2018-Jul-16 09:00N 34°22' E 134°19'714.9
2018-Jul-16 08:31N 34°25' E 134°11'814.1
2018-Jul-16 07:57N 34°26' E 134°02'1 0.0
2018-Jul-14 20:59N 34°26' E 134°01'1113.0
2018-Jul-14 20:11N 34°24' E 134°14'213.5
2018-Jul-14 20:00N 34°24' E 134°16'714.1
2018-Jul-14 19:30N 34°21' E 134°24'714.2
2018-Jul-14 19:00N 34°19' E 134°32'713.8
2018-Jul-14 18:29N 34°14' E 134°39'4 8.8
2018-Jul-14 18:00N 34°11' E 134°43'611.6
2018-Jul-14 17:30N 34°07' E 134°47'714.8
2018-Jul-14 17:00N 34°01' E 134°52'714.8
2018-Jul-14 16:30N 33°54' E 134°57'714.7
2018-Jul-14 16:00N 33°49' E 135°03'714.5
2018-Jul-14 15:30N 33°44' E 135°09'211 4.9
2018-Jul-12 20:39N 34°49' E 139°13'1411.7
2018-Jul-12 19:26N 34°58' E 139°26'511.9
2018-Jul-12 18:59N 35°02' E 139°31'613.3
2018-Jul-12 18:30N 35°05' E 139°38'713.9
2018-Jul-12 18:00N 35°10' E 139°44'612.2
2018-Jul-12 17:30N 35°16' E 139°46'612.7
2018-Jul-12 17:00N 35°21' E 139°42'612.5
2018-Jul-12 16:30N 35°28' E 139°43'0 0.6
2018-Jul-12 15:59N 35°28' E 139°43'0 0.0
2018-Jul-12 15:26N 35°28' E 139°43'0 0.0
2018-Jul-12 14:59N 35°28' E 139°43'0 0.1
2018-Jul-12 14:29N 35°28' E 139°43'0 0.0
2018-Jul-12 13:59N 35°28' E 139°43'0 0.0
2018-Jul-12 13:26N 35°28' E 139°43'0 0.1
2018-Jul-12 12:59N 35°28' E 139°43'0 0.0
2018-Jul-12 12:29N 35°28' E 139°43'0 0.1
2018-Jul-12 11:56N 35°28' E 139°43'0 0.1
2018-Jul-12 11:29N 35°28' E 139°43'0 0.1
2018-Jul-12 10:56N 35°28' E 139°43'0 0.1
2018-Jul-12 10:26N 35°28' E 139°43'0 0.0
2018-Jul-12 09:59N 35°28' E 139°43'0 0.0
2018-Jul-12 09:30N 35°28' E 139°43'1 2.3
2018-Jul-12 09:00N 35°27' E 139°43'5 9.2
2018-Jul-12 08:30N 35°29' E 139°49'612.4
2018-Jul-12 08:00N 35°33' E 139°54'4 2.9
2018-Jul-12 06:40N 35°36' E 139°57'0 0.6
2018-Jul-12 06:30N 35°36' E 139°57'4 0.6
2018-Jul-11 23:04N 35°40' E 139°57'4 8.5
2018-Jul-11 22:37N 35°37' E 139°58'112.2
2018-Jul-11 22:29N 35°35' E 139°57'612.7
2018-Jul-11 22:00N 35°30' E 139°53'612.7
2018-Jul-11 21:30N 35°25' E 139°48'612.3
2018-Jul-11 21:00N 35°20' E 139°44'611.6
2018-Jul-11 20:30N 35°15' E 139°47'610.9
2018-Jul-11 20:00N 35°09' E 139°46'612.6
2018-Jul-11 19:30N 35°05' E 139°41'714.6
2018-Jul-11 19:00N 34°60' E 139°34'916.1
2018-Jul-11 18:28N 34°55' E 139°26'22712.3
2018-Jul-11 00:01N 33°47' E 135°03'0 9.8
2018-Jul-11 00:00N 33°47' E 135°03'813.5
2018-Jul-10 23:26N 33°54' E 134°58'3212.8
2018-Jul-10 20:54N 34°18' E 134°32'614.3
2018-Jul-10 20:28N 34°20' E 134°25'  
Track history (hours):
 
Tides and Currents Weather Stations Pressure Air Temp Water Temp Dewpoint Dewpoint Depression Visibility Wind Speed Wind Dir Waves Ship Positions

Hakuryu Maru

Last reported at 2018-Jul-20 09:00 UTC. Time now 2018-Jul-21 07:59 UTC.
Position N 33°48' E 135°05'.

Length 115 m; draft 5.1 m.

Type: Cargo ship. MMSI: 431500789.

Date/timePositionNaut miles runAvg speedWind from/ knotsBaromVisibWave heightAir tempDewpointWater temp
2018-Jul-20 09:00N 33°48' E 135°05'713.1
2018-Jul-20 08:28N 33°53' E 134°59'613.3
2018-Jul-20 08:00N 33°57' E 134°54'713.7
2018-Jul-20 07:30N 34°03' E 134°49'1113.4
2018-Jul-20 06:42N 34°11' E 134°41'313.0
2018-Jul-20 06:27N 34°14' E 134°39'713.2
2018-Jul-20 05:58N 34°17' E 134°32'613.2
2018-Jul-20 05:30N 34°19' E 134°26'12 0.2
2018-Jul-18 04:56N 34°25' E 134°13'615.4
2018-Jul-18 04:30N 34°24' E 134°20'815.5
2018-Jul-18 04:01N 34°21' E 134°29'1115.2
2018-Jul-18 03:17N 34°14' E 134°39'415.4
2018-Jul-18 03:00N 34°11' E 134°42'715.0
2018-Jul-18 02:30N 34°05' E 134°48'815.4
2018-Jul-18 02:00N 33°59' E 134°54'815.3
2018-Jul-18 01:31N 33°53' E 135°01'915.4
2018-Jul-18 00:54N 33°46' E 135°07'1 0.0
2018-Jul-16 17:02N 33°46' E 135°09'014.0
2018-Jul-16 17:00N 33°46' E 135°09'714.2
2018-Jul-16 16:30N 33°51' E 135°03'713.9
2018-Jul-16 16:00N 33°56' E 134°57'713.8
2018-Jul-16 15:30N 34°02' E 134°52'1413.7
2018-Jul-16 14:27N 34°13' E 134°41'7 1.6
2018-Jul-16 10:07N 34°16' E 134°34'1 4.9
2018-Jul-16 09:55N 34°17' E 134°33'512.5
2018-Jul-16 09:31N 34°19' E 134°27'713.8
2018-Jul-16 09:00N 34°22' E 134°19'714.9
2018-Jul-16 08:31N 34°25' E 134°11'814.1
2018-Jul-16 07:57N 34°26' E 134°02'1 0.0
2018-Jul-14 20:59N 34°26' E 134°01'1113.0
2018-Jul-14 20:11N 34°24' E 134°14'213.5
2018-Jul-14 20:00N 34°24' E 134°16'714.1
2018-Jul-14 19:30N 34°21' E 134°24'714.2
2018-Jul-14 19:00N 34°19' E 134°32'713.8
2018-Jul-14 18:29N 34°14' E 134°39'4 8.8
2018-Jul-14 18:00N 34°11' E 134°43'611.6
2018-Jul-14 17:30N 34°07' E 134°47'714.8
2018-Jul-14 17:00N 34°01' E 134°52'714.8
2018-Jul-14 16:30N 33°54' E 134°57'714.7
2018-Jul-14 16:00N 33°49' E 135°03'714.5
2018-Jul-14 15:30N 33°44' E 135°09'211 4.9
2018-Jul-12 20:39N 34°49' E 139°13'1411.7
2018-Jul-12 19:26N 34°58' E 139°26'511.9
2018-Jul-12 18:59N 35°02' E 139°31'613.3
2018-Jul-12 18:30N 35°05' E 139°38'713.9
2018-Jul-12 18:00N 35°10' E 139°44'612.2
2018-Jul-12 17:30N 35°16' E 139°46'612.7
2018-Jul-12 17:00N 35°21' E 139°42'612.5
2018-Jul-12 16:30N 35°28' E 139°43'0 0.6
2018-Jul-12 15:59N 35°28' E 139°43'0 0.0
2018-Jul-12 15:26N 35°28' E 139°43'0 0.0
2018-Jul-12 14:59N 35°28' E 139°43'0 0.1
2018-Jul-12 14:29N 35°28' E 139°43'0 0.0
2018-Jul-12 13:59N 35°28' E 139°43'0 0.0
2018-Jul-12 13:26N 35°28' E 139°43'0 0.1
2018-Jul-12 12:59N 35°28' E 139°43'0 0.0
2018-Jul-12 12:29N 35°28' E 139°43'0 0.1
2018-Jul-12 11:56N 35°28' E 139°43'0 0.1
2018-Jul-12 11:29N 35°28' E 139°43'0 0.1
2018-Jul-12 10:56N 35°28' E 139°43'0 0.1
2018-Jul-12 10:26N 35°28' E 139°43'0 0.0
2018-Jul-12 09:59N 35°28' E 139°43'0 0.0
2018-Jul-12 09:30N 35°28' E 139°43'1 2.3
2018-Jul-12 09:00N 35°27' E 139°43'5 9.2
2018-Jul-12 08:30N 35°29' E 139°49'612.4
2018-Jul-12 08:00N 35°33' E 139°54'4 2.9
2018-Jul-12 06:40N 35°36' E 139°57'0 0.6
2018-Jul-12 06:30N 35°36' E 139°57'4 0.6
2018-Jul-11 23:04N 35°40' E 139°57'4 8.5
2018-Jul-11 22:37N 35°37' E 139°58'112.2
2018-Jul-11 22:29N 35°35' E 139°57'612.7
2018-Jul-11 22:00N 35°30' E 139°53'612.7
2018-Jul-11 21:30N 35°25' E 139°48'612.3
2018-Jul-11 21:00N 35°20' E 139°44'611.6
2018-Jul-11 20:30N 35°15' E 139°47'610.9
2018-Jul-11 20:00N 35°09' E 139°46'612.6
2018-Jul-11 19:30N 35°05' E 139°41'714.6
2018-Jul-11 19:00N 34°60' E 139°34'916.1
2018-Jul-11 18:28N 34°55' E 139°26'22712.3
2018-Jul-11 00:01N 33°47' E 135°03'0 9.8
2018-Jul-11 00:00N 33°47' E 135°03'813.5
2018-Jul-10 23:26N 33°54' E 134°58'3212.8
2018-Jul-10 20:54N 34°18' E 134°32'614.3
2018-Jul-10 20:28N 34°20' E 134°25'  

Dump ship's entire track history